createdAt,value
2019-01-25T00:01:15.615Z,49.84
2019-01-25T00:05:20.318Z,49.90
2019-01-25T00:09:25.010Z,49.09
2019-01-25T00:13:29.710Z,49.69
2019-01-25T00:17:34.396Z,49.72
2019-01-25T00:21:39.086Z,50.06
2019-01-25T00:25:43.786Z,49.93
2019-01-25T00:29:48.483Z,49.75
2019-01-25T00:33:53.182Z,49.66
2019-01-25T00:37:57.870Z,49.66
2019-01-25T00:42:02.566Z,49.64
2019-01-25T00:46:07.260Z,49.44
2019-01-25T00:50:19.889Z,49.63
2019-01-25T00:54:24.588Z,49.47
2019-01-25T00:58:29.272Z,49.63
2019-01-25T01:02:33.970Z,49.56
2019-01-25T01:06:38.668Z,49.79
2019-01-25T01:10:43.372Z,49.75
2019-01-25T01:14:48.055Z,49.69
2019-01-25T01:18:52.748Z,49.53
2019-01-25T01:22:57.451Z,49.53
2019-01-25T01:27:02.153Z,49.79
2019-01-25T01:31:06.851Z,49.77
2019-01-25T01:35:11.540Z,49.88
2019-01-25T01:39:16.239Z,50.12
2019-01-25T01:43:20.938Z,50.41
2019-01-25T01:47:25.633Z,50.46
2019-01-25T01:51:30.330Z,50.28
2019-01-25T01:55:35.022Z,50.24
2019-01-25T01:59:39.724Z,50.39
2019-01-25T02:03:44.419Z,50.43
2019-01-25T02:07:49.120Z,50.17
2019-01-25T02:11:53.820Z,50.13
2019-01-25T02:15:58.509Z,50.27
2019-01-25T02:20:04.282Z,50.29
2019-01-25T02:24:08.986Z,50.41
2019-01-25T02:28:13.680Z,50.10
2019-01-25T02:32:18.560Z,50.10
2019-01-25T02:36:23.260Z,50.19
2019-01-25T02:40:27.954Z,50.46
2019-01-25T02:44:32.651Z,50.42
2019-01-25T02:48:37.344Z,50.46
2019-01-25T02:52:42.046Z,50.47
2019-01-25T02:56:46.732Z,50.54
2019-01-25T03:00:51.430Z,50.43
2019-01-25T03:04:56.129Z,50.23
2019-01-25T03:09:00.821Z,50.55
2019-01-25T03:13:06.580Z,50.58
2019-01-25T03:17:11.279Z,50.52
2019-01-25T03:21:15.977Z,50.17
2019-01-25T03:25:22.815Z,50.49
2019-01-25T03:29:27.510Z,50.42
2019-01-25T03:33:32.238Z,50.45
2019-01-25T03:37:36.896Z,50.48
2019-01-25T03:41:41.592Z,51.57
2019-01-25T03:45:46.298Z,51.12
2019-01-25T03:49:51.002Z,50.76
2019-01-25T03:53:55.690Z,50.54
2019-01-25T03:58:00.392Z,50.53
2019-01-25T04:02:05.871Z,50.74
2019-01-25T04:06:10.574Z,50.59
2019-01-25T04:10:23.716Z,51.06
2019-01-25T04:14:28.397Z,51.18
2019-01-25T04:18:34.066Z,51.04
2019-01-25T04:22:38.766Z,50.97
2019-01-25T04:26:43.461Z,51.14
2019-01-25T04:30:48.162Z,50.79
2019-01-25T04:34:52.854Z,50.83
2019-01-25T04:38:57.553Z,50.95
2019-01-25T04:43:02.262Z,50.76
2019-01-25T04:47:06.954Z,50.68
2019-01-25T04:51:11.644Z,51.16
2019-01-25T04:55:18.779Z,51.71
2019-01-25T04:59:26.572Z,51.41
2019-01-25T05:03:31.445Z,51.45
2019-01-25T05:07:36.147Z,51.14
2019-01-25T05:11:40.838Z,51.14
2019-01-25T05:15:45.540Z,51.32
2019-01-25T05:19:50.233Z,51.17
2019-01-25T05:23:54.932Z,51.13
2019-01-25T05:28:14.093Z,51.17
2019-01-25T05:32:18.763Z,51.26
2019-01-25T05:36:23.461Z,51.08
2019-01-25T05:40:28.152Z,51.09
2019-01-25T05:44:32.856Z,50.97
2019-01-25T05:48:37.568Z,50.95
2019-01-25T05:52:43.298Z,50.83
2019-01-25T05:56:48.007Z,51.08
2019-01-25T06:00:52.692Z,51.18
2019-01-25T06:04:57.398Z,51.28
2019-01-25T06:09:02.097Z,51.00
2019-01-25T06:13:07.870Z,50.89
2019-01-25T06:17:12.599Z,51.08
2019-01-25T06:21:17.302Z,51.18
2019-01-25T06:25:22.014Z,50.88
2019-01-25T06:29:28.981Z,51.67
2019-01-25T06:33:33.667Z,51.47
2019-01-25T06:37:38.373Z,51.33
2019-01-25T06:41:44.192Z,51.66
2019-01-25T06:45:50.670Z,51.83
2019-01-25T06:49:55.365Z,52.06
2019-01-25T06:54:00.057Z,51.92
2019-01-25T06:58:12.725Z,52.55
2019-01-25T07:02:17.423Z,52.30
2019-01-25T07:06:22.116Z,51.45
2019-01-25T07:10:26.828Z,51.62
2019-01-25T07:14:31.505Z,51.24
2019-01-25T07:18:36.206Z,51.35
2019-01-25T07:22:40.911Z,51.30
2019-01-25T07:26:45.616Z,51.33
2019-01-25T07:30:50.334Z,51.39
2019-01-25T07:34:55.014Z,51.47
2019-01-25T07:38:59.716Z,51.49
2019-01-25T07:43:04.413Z,51.19
2019-01-25T07:47:09.115Z,51.22
2019-01-25T07:51:13.833Z,51.02
2019-01-25T07:55:18.533Z,51.20
2019-01-25T07:59:23.248Z,51.15
2019-01-25T08:03:27.909Z,51.02
2019-01-25T08:07:32.625Z,51.05
2019-01-25T08:11:37.312Z,50.93
2019-01-25T08:15:42.014Z,50.81
2019-01-25T08:19:46.765Z,50.70
2019-01-25T08:23:51.405Z,50.79
2019-01-25T08:27:56.111Z,51.15
2019-01-25T08:32:00.844Z,51.62
2019-01-25T08:36:05.563Z,52.17
2019-01-25T08:40:14.788Z,53.09
2019-01-25T08:44:19.482Z,52.22
2019-01-25T08:48:25.251Z,51.83
2019-01-25T08:52:29.956Z,51.81
2019-01-25T08:56:34.823Z,51.88
2019-01-25T09:00:39.622Z,51.75
2019-01-25T09:04:44.309Z,52.01
2019-01-25T09:08:49.002Z,52.18
2019-01-25T09:12:53.683Z,52.25
2019-01-25T09:16:58.375Z,52.35
2019-01-25T09:21:03.068Z,52.22
2019-01-25T09:25:08.894Z,52.35
2019-01-25T09:29:14.653Z,52.31
2019-01-25T09:33:19.335Z,52.51
2019-01-25T09:37:24.034Z,52.61
2019-01-25T09:41:28.733Z,52.79
2019-01-25T09:45:33.419Z,52.46
2019-01-25T09:49:38.116Z,52.39
2019-01-25T09:53:42.793Z,52.43
2019-01-25T09:57:47.733Z,52.38
2019-01-25T10:01:52.422Z,52.50
2019-01-25T10:05:57.116Z,52.70
2019-01-25T10:10:01.796Z,52.53
2019-01-25T10:14:06.491Z,52.92
2019-01-25T10:18:11.186Z,52.59
2019-01-25T10:22:15.880Z,52.84
2019-01-25T10:26:20.572Z,52.91
2019-01-25T10:30:26.901Z,52.72
2019-01-25T10:34:31.601Z,52.73
2019-01-25T10:38:36.307Z,52.65
2019-01-25T10:42:45.638Z,52.76
2019-01-25T10:46:47.394Z,52.58
2019-01-25T10:50:52.090Z,52.59
2019-01-25T10:54:56.775Z,52.44
2019-01-25T10:59:01.473Z,52.29
2019-01-25T11:03:06.164Z,52.47
2019-01-25T11:07:10.882Z,52.34
2019-01-25T11:11:15.569Z,52.20
2019-01-25T11:15:22.392Z,52.08
2019-01-25T11:19:28.054Z,51.91
2019-01-25T11:23:32.751Z,51.56
2019-01-25T11:27:37.441Z,51.49
2019-01-25T11:31:42.129Z,51.65
2019-01-25T11:35:46.823Z,51.86
2019-01-25T11:39:51.519Z,51.80
2019-01-25T11:43:56.217Z,51.64
2019-01-25T11:48:00.913Z,51.82
2019-01-25T11:52:05.603Z,51.74
2019-01-25T11:56:10.291Z,51.39
2019-01-25T12:00:23.271Z,51.31
2019-01-25T12:04:27.964Z,51.13
2019-01-25T12:08:32.663Z,50.99
2019-01-25T12:12:37.370Z,51.22
2019-01-25T12:16:42.048Z,51.17
2019-01-25T12:20:46.807Z,51.00
2019-01-25T12:24:51.453Z,51.24
2019-01-25T12:28:56.151Z,51.27
2019-01-25T12:33:00.838Z,51.09
2019-01-25T12:37:05.525Z,51.24
2019-01-25T12:41:10.221Z,51.28
2019-01-25T12:45:24.318Z,51.14
2019-01-25T12:49:29.014Z,51.11
2019-01-25T12:53:34.086Z,51.33
2019-01-25T12:57:38.766Z,51.42
2019-01-25T13:01:43.466Z,51.50
2019-01-25T13:05:48.233Z,51.49
2019-01-25T13:09:52.922Z,51.12
2019-01-25T13:13:57.881Z,51.22
2019-01-25T13:18:02.563Z,51.01
2019-01-25T13:22:07.263Z,50.73
2019-01-25T13:26:11.955Z,50.61
2019-01-25T13:30:28.820Z,50.17
2019-01-25T13:34:33.523Z,50.34
2019-01-25T13:38:38.193Z,50.09
2019-01-25T13:42:42.888Z,50.17
2019-01-25T13:46:47.588Z,50.19
2019-01-25T13:50:52.606Z,50.47
2019-01-25T13:54:57.297Z,50.83
2019-01-25T13:59:01.994Z,51.17
2019-01-25T14:03:06.691Z,51.12
2019-01-25T14:07:11.389Z,50.89
2019-01-25T14:11:16.087Z,50.33
2019-01-25T14:15:20.768Z,50.50
2019-01-25T14:19:25.527Z,50.78
2019-01-25T14:23:30.158Z,50.94
2019-01-25T14:27:34.852Z,51.23
2019-01-25T14:31:39.539Z,51.85
2019-01-25T14:35:44.228Z,51.85
2019-01-25T14:39:48.919Z,51.79
2019-01-25T14:43:54.696Z,51.58
2019-01-25T14:48:00.503Z,51.45
2019-01-25T14:52:05.737Z,51.59
2019-01-25T14:56:10.438Z,51.83
2019-01-25T15:00:15.760Z,52.11
2019-01-25T15:04:20.453Z,52.81
2019-01-25T15:08:25.141Z,53.10
2019-01-25T15:12:29.841Z,53.28
2019-01-25T15:16:34.518Z,53.63
2019-01-25T15:20:39.208Z,53.85
2019-01-25T15:24:43.927Z,54.11
2019-01-25T15:28:49.476Z,54.43
2019-01-25T15:32:54.179Z,54.47
2019-01-25T15:36:58.873Z,54.56
2019-01-25T15:41:03.564Z,54.64
2019-01-25T15:45:11.196Z,54.95
2019-01-25T15:49:15.902Z,55.17
2019-01-25T15:53:20.595Z,55.49
2019-01-25T15:57:25.288Z,55.79
2019-01-25T16:01:29.971Z,56.06
2019-01-25T16:05:34.662Z,56.49
2019-01-25T16:09:39.357Z,56.99
2019-01-25T16:13:45.922Z,57.27
2019-01-25T16:17:50.614Z,57.36
2019-01-25T16:21:55.313Z,57.52
2019-01-25T16:26:00.011Z,57.66
2019-01-25T16:30:13.828Z,57.63
2019-01-25T16:34:18.525Z,57.58
2019-01-25T16:38:23.221Z,57.53
2019-01-25T16:42:27.899Z,57.36
2019-01-25T16:46:32.599Z,57.30
2019-01-25T16:50:37.292Z,57.11
2019-01-25T16:54:41.989Z,57.11
2019-01-25T16:58:46.676Z,57.14
2019-01-25T17:02:51.360Z,56.84
2019-01-25T17:06:56.053Z,56.67
2019-01-25T17:11:00.745Z,56.58
2019-01-25T17:15:08.987Z,56.34
2019-01-25T17:19:13.674Z,56.20
2019-01-25T17:23:18.364Z,56.00
2019-01-25T17:27:23.056Z,55.84
2019-01-25T17:31:27.749Z,55.80
2019-01-25T17:35:32.786Z,55.72
2019-01-25T17:39:37.468Z,55.57
2019-01-25T17:43:42.161Z,55.39
2019-01-25T17:47:46.852Z,55.53
2019-01-25T17:51:51.555Z,55.73
2019-01-25T17:55:56.231Z,55.69
2019-01-25T18:00:01.983Z,55.83
2019-01-25T18:04:06.674Z,55.78
2019-01-25T18:08:11.367Z,55.92
2019-01-25T18:12:16.123Z,56.98
2019-01-25T18:16:20.823Z,56.24
2019-01-25T18:20:25.513Z,55.79
2019-01-25T18:24:30.200Z,55.68
2019-01-25T18:28:39.209Z,55.76
2019-01-25T18:32:43.904Z,55.90
2019-01-25T18:36:48.595Z,55.99
2019-01-25T18:40:53.289Z,56.04
2019-01-25T18:44:57.973Z,56.09
2019-01-25T18:49:02.707Z,56.09
2019-01-25T18:53:07.397Z,56.25
2019-01-25T18:57:12.096Z,56.18
2019-01-25T19:01:16.798Z,56.37
2019-01-25T19:05:21.481Z,56.71
2019-01-25T19:09:26.176Z,57.02
2019-01-25T19:13:30.873Z,57.46
2019-01-25T19:17:35.565Z,58.18
2019-01-25T19:21:41.218Z,58.21
2019-01-25T19:25:45.906Z,58.44
2019-01-25T19:29:50.595Z,58.83
2019-01-25T19:33:55.289Z,59.01
2019-01-25T19:37:59.980Z,59.17
2019-01-25T19:42:04.667Z,59.63
2019-01-25T19:46:09.355Z,60.11
2019-01-25T19:50:16.754Z,60.33
2019-01-25T19:54:21.443Z,60.61
2019-01-25T19:58:27.145Z,61.04
2019-01-25T20:02:31.915Z,61.15
2019-01-25T20:06:36.611Z,61.08
2019-01-25T20:10:41.302Z,61.19
2019-01-25T20:14:45.993Z,61.36
2019-01-25T20:18:50.681Z,61.70
2019-01-25T20:22:55.364Z,61.96
2019-01-25T20:27:00.060Z,62.03
2019-01-25T20:31:04.760Z,61.98
2019-01-25T20:35:12.402Z,64.10
2019-01-25T20:39:17.094Z,62.78
2019-01-25T20:43:21.782Z,61.86
2019-01-25T20:47:26.475Z,61.61
2019-01-25T20:51:31.167Z,61.80
2019-01-25T20:55:35.865Z,61.61
2019-01-25T20:59:40.548Z,61.53
2019-01-25T21:03:45.236Z,61.43
2019-01-25T21:07:49.929Z,61.19
2019-01-25T21:11:54.626Z,61.00
2019-01-25T21:15:59.315Z,61.18
2019-01-25T21:20:06.901Z,61.32
2019-01-25T21:24:11.666Z,61.60
2019-01-25T21:28:16.360Z,61.88
2019-01-25T21:32:21.040Z,61.93
2019-01-25T21:36:25.722Z,62.32
2019-01-25T21:40:32.154Z,62.07
2019-01-25T21:44:36.844Z,61.90
2019-01-25T21:48:41.545Z,61.97
2019-01-25T21:52:46.228Z,62.04
2019-01-25T21:56:50.916Z,62.30
2019-01-25T22:00:55.610Z,62.03
2019-01-25T22:05:00.296Z,62.02
2019-01-25T22:09:06.736Z,62.03
2019-01-25T22:13:11.435Z,61.86
2019-01-25T22:17:16.289Z,61.87
2019-01-25T22:21:20.980Z,61.92
2019-01-25T22:25:25.669Z,61.89
2019-01-25T22:29:30.351Z,61.78
2019-01-25T22:33:35.035Z,61.63
2019-01-25T22:37:39.711Z,61.32
2019-01-25T22:41:44.403Z,61.29
2019-01-25T22:45:49.090Z,61.13
2019-01-25T22:49:53.763Z,61.04
2019-01-25T22:53:58.582Z,61.08
2019-01-25T22:58:03.205Z,61.08
2019-01-25T23:02:07.887Z,60.95
2019-01-25T23:06:35.212Z,60.94
2019-01-25T23:10:39.891Z,60.69
2019-01-25T23:14:44.569Z,60.47
2019-01-25T23:18:49.233Z,60.41
2019-01-25T23:22:53.920Z,60.45
2019-01-25T23:26:58.612Z,60.32
2019-01-25T23:31:04.268Z,60.17
2019-01-25T23:35:08.947Z,60.16
2019-01-25T23:39:13.624Z,60.30
2019-01-25T23:43:18.323Z,60.60
2019-01-25T23:47:22.998Z,61.50
2019-01-25T23:51:27.678Z,61.29
2019-01-25T23:55:32.374Z,61.09
2019-01-25T23:59:38.015Z,61.10
